createdAt,value
2023-04-10T00:00:58.780Z,20.72
2023-04-10T00:04:03.077Z,20.72
2023-04-10T00:07:06.169Z,20.70
2023-04-10T00:10:09.329Z,20.70
2023-04-10T00:13:12.109Z,20.73
2023-04-10T00:16:14.980Z,20.73
2023-04-10T00:19:19.184Z,20.74
2023-04-10T00:22:22.021Z,20.74
2023-04-10T00:25:25.136Z,20.73
2023-04-10T00:28:28.013Z,20.73
2023-04-10T00:31:31.601Z,20.72
2023-04-10T00:34:36.026Z,20.70
2023-04-10T00:37:39.196Z,20.70
2023-04-10T00:40:41.977Z,20.70
2023-04-10T00:43:45.313Z,20.67
2023-04-10T00:46:48.304Z,20.68
2023-04-10T00:49:52.899Z,20.70
2023-04-10T00:52:55.921Z,20.72
2023-04-10T00:55:59.992Z,20.71
2023-04-10T00:59:05.770Z,20.69
2023-04-10T01:02:11.302Z,20.68
2023-04-10T01:05:15.765Z,20.67
2023-04-10T01:08:25.985Z,20.62
2023-04-10T01:11:40.267Z,20.61
2023-04-10T01:14:50.378Z,20.62
2023-04-10T01:18:02.250Z,20.63
2023-04-10T01:21:09.415Z,20.63
2023-04-10T01:24:35.928Z,20.62
2023-04-10T01:27:47.946Z,20.62
2023-04-10T01:30:54.937Z,20.64
2023-04-10T01:34:03.296Z,20.64
2023-04-10T01:37:12.884Z,20.63
2023-04-10T01:40:17.500Z,20.63
2023-04-10T01:43:22.936Z,20.60
2023-04-10T01:46:30.646Z,20.57
2023-04-10T01:49:35.639Z,20.59
2023-04-10T01:52:40.484Z,20.59
2023-04-10T01:56:03.835Z,20.57
2023-04-10T01:59:14.868Z,20.59
2023-04-10T02:02:19.147Z,20.62
2023-04-10T02:05:23.189Z,20.61
2023-04-10T02:08:32.361Z,20.64
2023-04-10T02:11:42.942Z,20.64
2023-04-10T02:14:48.290Z,20.63
2023-04-10T02:17:53.958Z,20.61
2023-04-10T02:20:57.182Z,20.62
2023-04-10T02:24:00.088Z,20.60
2023-04-10T02:27:02.928Z,20.59
2023-04-10T02:30:06.784Z,20.60
2023-04-10T02:33:12.701Z,20.58
2023-04-10T02:36:15.537Z,20.58
2023-04-10T02:39:18.290Z,20.58
2023-04-10T02:42:24.418Z,20.62
2023-04-10T02:45:29.176Z,20.63
2023-04-10T02:48:33.482Z,20.63
2023-04-10T02:51:38.654Z,20.60
2023-04-10T02:54:41.728Z,20.59
2023-04-10T02:57:44.510Z,20.56
2023-04-10T03:00:49.812Z,20.57
2023-04-10T03:04:04.900Z,20.56
2023-04-10T03:07:12.857Z,20.55
2023-04-10T03:10:15.815Z,20.54
2023-04-10T03:13:18.853Z,20.53
2023-04-10T03:16:21.698Z,20.55
2023-04-10T03:19:26.789Z,20.57
2023-04-10T03:22:32.149Z,20.59
2023-04-10T03:25:36.562Z,20.59
2023-04-10T03:28:41.314Z,20.59
2023-04-10T03:31:46.113Z,20.59
2023-04-10T03:34:50.396Z,20.58
2023-04-10T03:37:53.149Z,20.56
2023-04-10T03:40:56.534Z,20.56
2023-04-10T03:44:03.288Z,20.55
2023-04-10T03:47:06.225Z,20.55
2023-04-10T03:50:11.612Z,20.54
2023-04-10T03:53:22.098Z,20.53
2023-04-10T03:56:25.680Z,20.54
2023-04-10T03:59:37.935Z,20.55
2023-04-10T04:02:44.218Z,20.55
2023-04-10T04:05:49.168Z,20.54
2023-04-10T04:09:00.138Z,20.52
2023-04-10T04:12:38.557Z,20.52
2023-04-10T04:16:01.136Z,20.52
2023-04-10T04:19:32.899Z,20.48
2023-04-10T04:23:06.236Z,20.48
2023-04-10T04:26:11.859Z,20.49
2023-04-10T04:29:23.781Z,20.46
2023-04-10T04:32:42.155Z,20.47
2023-04-10T04:35:52.945Z,20.47
2023-04-10T04:39:15.860Z,20.50
2023-04-10T04:42:24.428Z,20.51
2023-04-10T04:45:50.275Z,20.51
2023-04-10T04:49:11.946Z,20.51
2023-04-10T04:52:37.667Z,20.49
2023-04-10T04:56:02.581Z,20.50
2023-04-10T04:59:14.102Z,20.51
2023-04-10T05:02:31.406Z,20.49
2023-04-10T05:06:08.337Z,20.51
2023-04-10T05:09:34.253Z,20.52
2023-04-10T05:12:53.488Z,20.52
2023-04-10T05:16:05.691Z,20.54
2023-04-10T05:19:08.460Z,20.54
2023-04-10T05:22:29.670Z,20.54
2023-04-10T05:25:59.884Z,20.52
2023-04-10T05:29:23.456Z,20.52
2023-04-10T05:32:46.006Z,20.52
2023-04-10T05:36:27.614Z,20.50
2023-04-10T05:39:43.961Z,20.48
2023-04-10T05:43:06.889Z,20.49
2023-04-10T05:46:29.749Z,20.49
2023-04-10T05:49:49.761Z,20.50
2023-04-10T05:52:58.256Z,20.50
2023-04-10T05:56:18.504Z,20.51
2023-04-10T05:59:35.301Z,20.51
2023-04-10T06:02:57.704Z,20.53
2023-04-10T06:06:03.894Z,20.54
2023-04-10T06:09:08.171Z,20.54
2023-04-10T06:12:11.050Z,20.54
2023-04-10T06:15:16.213Z,20.55
2023-04-10T06:18:20.894Z,20.54
2023-04-10T06:21:24.464Z,20.53
2023-04-10T06:24:27.200Z,20.53
2023-04-10T06:27:31.272Z,20.52
2023-04-10T06:30:37.180Z,20.53
2023-04-10T06:33:43.546Z,20.54
2023-04-10T06:36:46.927Z,20.55
2023-04-10T06:39:50.152Z,20.55
2023-04-10T06:42:52.951Z,20.56
2023-04-10T06:46:05.364Z,20.57
2023-04-10T06:49:09.451Z,20.58
2023-04-10T06:52:12.313Z,20.58
2023-04-10T06:55:15.072Z,20.58
2023-04-10T06:58:18.629Z,20.59
2023-04-10T07:01:21.482Z,20.59
2023-04-10T07:04:25.662Z,20.59
2023-04-10T07:07:29.250Z,20.59
2023-04-10T07:10:32.081Z,20.60
2023-04-10T07:13:35.638Z,20.60
2023-04-10T07:16:38.470Z,20.61
2023-04-10T07:19:42.591Z,20.59
2023-04-10T07:22:45.459Z,20.60
2023-04-10T07:25:48.211Z,20.61
2023-04-10T07:28:50.967Z,20.61
2023-04-10T07:31:53.850Z,20.60
2023-04-10T07:34:58.067Z,20.60
2023-04-10T07:38:00.823Z,20.60
2023-04-10T07:41:03.569Z,20.60
2023-04-10T07:44:06.350Z,20.61
2023-04-10T07:47:09.188Z,20.63
2023-04-10T07:50:13.342Z,20.63
2023-04-10T07:53:16.196Z,20.62
2023-04-10T07:56:20.251Z,20.62
2023-04-10T07:59:22.987Z,20.63
2023-04-10T08:02:26.179Z,20.63
2023-04-10T08:05:30.699Z,20.61
2023-04-10T08:08:33.451Z,20.61
2023-04-10T08:11:38.659Z,20.62
2023-04-10T08:14:41.665Z,20.61
2023-04-10T08:17:44.505Z,20.62
2023-04-10T08:20:48.647Z,20.63
2023-04-10T08:23:51.841Z,20.63
2023-04-10T08:26:54.635Z,20.63
2023-04-10T08:29:57.538Z,20.63
2023-04-10T08:33:00.353Z,20.64
2023-04-10T08:36:05.887Z,20.64
2023-04-10T08:39:08.702Z,20.64
2023-04-10T08:42:11.704Z,20.64
2023-04-10T08:45:14.481Z,20.64
2023-04-10T08:48:20.547Z,20.64
2023-04-10T08:51:29.984Z,20.65
2023-04-10T08:54:35.299Z,20.64
2023-04-10T08:57:40.713Z,20.64
2023-04-10T09:00:45.750Z,20.66
2023-04-10T09:03:49.624Z,20.67
2023-04-10T09:06:54.832Z,20.66
2023-04-10T09:09:57.816Z,20.67
2023-04-10T09:13:00.788Z,20.66
2023-04-10T09:16:04.970Z,20.65
2023-04-10T09:19:07.876Z,20.65
2023-04-10T09:22:12.230Z,20.66
2023-04-10T09:25:30.800Z,20.65
2023-04-10T09:28:35.208Z,20.65
2023-04-10T09:31:38.974Z,20.65
2023-04-10T09:34:56.814Z,20.65
2023-04-10T09:38:01.062Z,20.65
2023-04-10T09:41:08.262Z,20.65
2023-04-10T09:44:12.800Z,20.66
2023-04-10T09:47:21.468Z,20.67
2023-04-10T09:50:38.692Z,20.67
2023-04-10T09:53:51.133Z,20.67
2023-04-10T09:56:54.815Z,20.68
2023-04-10T09:59:58.681Z,20.68
2023-04-10T10:03:04.270Z,20.69
2023-04-10T10:06:07.984Z,20.69
2023-04-10T10:09:12.460Z,20.68
2023-04-10T10:12:17.967Z,20.69
2023-04-10T10:15:29.614Z,20.69
2023-04-10T10:18:40.781Z,20.70
2023-04-10T10:21:45.817Z,20.70
2023-04-10T10:24:50.799Z,20.70
2023-04-10T10:27:55.430Z,20.70
2023-04-10T10:30:58.711Z,20.70
2023-04-10T10:34:04.810Z,20.69
2023-04-10T10:37:08.123Z,20.70
2023-04-10T10:40:18.787Z,20.69
2023-04-10T10:43:28.949Z,20.70
2023-04-10T10:46:37.967Z,20.70
2023-04-10T10:49:57.302Z,20.70
2023-04-10T10:53:01.378Z,20.70
2023-04-10T10:56:38.629Z,20.70
2023-04-10T10:59:57.723Z,20.68
2023-04-10T11:03:30.918Z,20.68
2023-04-10T11:06:52.139Z,20.69
2023-04-10T11:09:57.356Z,20.68
2023-04-10T11:13:19.849Z,20.68
2023-04-10T11:16:24.626Z,20.70
2023-04-10T11:19:27.770Z,20.73
2023-04-10T11:22:30.798Z,20.75
2023-04-10T11:25:49.078Z,20.79
2023-04-10T11:28:53.637Z,20.80
2023-04-10T11:31:58.086Z,20.84
2023-04-10T11:35:01.885Z,20.86
2023-04-10T11:38:18.171Z,20.87
2023-04-10T11:41:20.940Z,20.88
2023-04-10T11:44:31.814Z,20.89
2023-04-10T11:47:35.624Z,20.89
2023-04-10T11:50:38.567Z,20.90
2023-04-10T11:53:42.760Z,20.90
2023-04-10T11:56:58.832Z,20.88
2023-04-10T12:00:04.228Z,20.87
2023-04-10T12:03:09.126Z,20.86
2023-04-10T12:06:13.480Z,20.86
2023-04-10T12:09:17.192Z,20.85
2023-04-10T12:12:20.678Z,20.83
2023-04-10T12:15:29.378Z,20.82
2023-04-10T12:18:32.762Z,20.82
2023-04-10T12:21:37.402Z,20.81
2023-04-10T12:24:45.098Z,20.80
2023-04-10T12:27:51.072Z,20.79
2023-04-10T12:30:55.272Z,20.80
2023-04-10T12:33:58.692Z,20.80
2023-04-10T12:37:01.532Z,20.79
2023-04-10T12:40:08.426Z,20.79
2023-04-10T12:43:11.273Z,20.79
2023-04-10T12:46:26.731Z,20.83
2023-04-10T12:49:29.474Z,20.85
2023-04-10T12:52:32.453Z,20.84
2023-04-10T12:55:36.747Z,20.86
2023-04-10T12:58:41.083Z,20.85
2023-04-10T13:01:45.574Z,20.87
2023-04-10T13:04:48.413Z,20.87
2023-04-10T13:07:52.727Z,20.87
2023-04-10T13:10:58.090Z,20.89
2023-04-10T13:14:00.912Z,20.91
2023-04-10T13:17:05.095Z,20.93
2023-04-10T13:20:10.286Z,20.93
2023-04-10T13:23:13.111Z,20.95
2023-04-10T13:26:15.850Z,20.94
2023-04-10T13:29:18.624Z,20.94
2023-04-10T13:32:22.727Z,20.95
2023-04-10T13:35:25.578Z,20.95
2023-04-10T13:38:28.540Z,20.95
2023-04-10T13:41:31.292Z,20.95
2023-04-10T13:44:34.132Z,20.95
2023-04-10T13:47:38.352Z,20.94
2023-04-10T13:50:41.216Z,20.77
2023-04-10T13:53:44.034Z,20.29
2023-04-10T13:56:46.974Z,19.91
2023-04-10T13:59:49.891Z,20.04
2023-04-10T14:02:54.281Z,20.10
2023-04-10T14:05:57.233Z,20.17
2023-04-10T14:09:00.008Z,20.19
2023-04-10T14:12:03.233Z,20.18
2023-04-10T14:15:07.012Z,20.19
2023-04-10T14:18:11.166Z,20.18
2023-04-10T14:21:14.009Z,20.15
2023-04-10T14:24:16.851Z,20.19
2023-04-10T14:27:19.792Z,20.23
2023-04-10T14:30:22.630Z,20.24
2023-04-10T14:33:26.783Z,20.27
2023-04-10T14:36:29.545Z,20.29
2023-04-10T14:39:33.820Z,20.32
2023-04-10T14:42:36.548Z,20.38
2023-04-10T14:45:39.306Z,20.40
2023-04-10T14:48:43.677Z,20.42
2023-04-10T14:51:48.406Z,20.44
2023-04-10T14:54:51.190Z,20.44
2023-04-10T14:57:53.944Z,20.46
2023-04-10T15:00:56.738Z,20.48
2023-04-10T15:04:01.051Z,20.48
2023-04-10T15:07:04.282Z,20.48
2023-04-10T15:10:08.253Z,20.50
2023-04-10T15:13:11.012Z,20.50
2023-04-10T15:16:13.958Z,20.50
2023-04-10T15:19:18.180Z,20.50
2023-04-10T15:22:20.932Z,20.50
2023-04-10T15:25:23.696Z,20.50
2023-04-10T15:28:28.098Z,20.50
2023-04-10T15:31:30.875Z,20.50
2023-04-10T15:34:35.405Z,20.51
2023-04-10T15:37:38.187Z,20.51
2023-04-10T15:40:40.970Z,20.51
2023-04-10T15:43:43.708Z,20.53
2023-04-10T15:46:47.493Z,20.53
2023-04-10T15:49:51.640Z,20.55
2023-04-10T15:52:54.416Z,20.54
2023-04-10T15:55:57.269Z,20.55
2023-04-10T15:59:00.139Z,20.55
2023-04-10T16:02:03.335Z,20.54
2023-04-10T16:05:09.158Z,20.53
2023-04-10T16:08:12.177Z,20.53
2023-04-10T16:11:14.962Z,20.52
2023-04-10T16:14:18.834Z,20.53
2023-04-10T16:17:21.629Z,20.53
2023-04-10T16:20:25.875Z,20.53
2023-04-10T16:23:28.696Z,20.54
2023-04-10T16:26:31.463Z,20.54
2023-04-10T16:29:34.265Z,20.53
2023-04-10T16:32:37.075Z,20.54
2023-04-10T16:35:41.296Z,20.55
2023-04-10T16:38:44.566Z,20.55
2023-04-10T16:41:47.382Z,20.55
2023-04-10T16:44:50.315Z,20.54
2023-04-10T16:47:53.185Z,20.55
2023-04-10T16:51:04.669Z,20.55
2023-04-10T16:54:07.930Z,20.54
2023-04-10T16:57:10.816Z,20.55
2023-04-10T17:00:14.650Z,20.55
2023-04-10T17:03:17.510Z,20.56
2023-04-10T17:06:22.101Z,20.56
2023-04-10T17:09:24.971Z,20.55
2023-04-10T17:12:27.810Z,20.57
2023-04-10T17:15:30.712Z,20.55
2023-04-10T17:18:34.157Z,20.55
2023-04-10T17:21:38.474Z,20.55
2023-04-10T17:24:41.258Z,20.54
2023-04-10T17:27:44.065Z,20.54
2023-04-10T17:30:48.359Z,20.55
2023-04-10T17:33:51.151Z,20.54
2023-04-10T17:36:55.339Z,20.55
2023-04-10T17:39:58.228Z,20.55
2023-04-10T17:43:01.047Z,20.55
2023-04-10T17:46:03.839Z,20.55
2023-04-10T17:49:06.682Z,20.56
2023-04-10T17:52:10.799Z,20.55
2023-04-10T17:55:18.369Z,20.55
2023-04-10T17:58:23.968Z,20.55
2023-04-10T18:01:30.098Z,20.55
2023-04-10T18:04:32.988Z,20.54
2023-04-10T18:07:38.196Z,20.53
2023-04-10T18:10:41.116Z,20.53
2023-04-10T18:13:43.880Z,20.53
2023-04-10T18:16:46.739Z,20.53
2023-04-10T18:19:51.196Z,20.53
2023-04-10T18:22:55.380Z,20.54
2023-04-10T18:25:58.447Z,20.53
2023-04-10T18:29:01.506Z,20.53
2023-04-10T18:32:04.353Z,20.53
2023-04-10T18:35:07.900Z,20.52
2023-04-10T18:38:12.084Z,20.52
2023-04-10T18:41:14.895Z,20.51
2023-04-10T18:44:17.744Z,20.50
2023-04-10T18:47:20.566Z,20.50
2023-04-10T18:50:23.361Z,20.49
2023-04-10T18:53:27.530Z,20.50
2023-04-10T18:56:30.352Z,20.52
2023-04-10T18:59:33.094Z,20.52
2023-04-10T19:02:36.068Z,20.50
2023-04-10T19:05:38.879Z,20.50
2023-04-10T19:08:43.071Z,20.50
2023-04-10T19:11:45.957Z,20.50
2023-04-10T19:14:49.894Z,20.49
2023-04-10T19:17:54.093Z,20.49
2023-04-10T19:20:56.980Z,20.49
2023-04-10T19:24:03.533Z,20.48
2023-04-10T19:27:06.488Z,20.48
2023-04-10T19:30:10.525Z,20.48
2023-04-10T19:33:13.290Z,20.49
2023-04-10T19:36:16.685Z,20.49
2023-04-10T19:39:20.863Z,20.48
2023-04-10T19:42:23.647Z,20.49
2023-04-10T19:45:27.345Z,20.48
2023-04-10T19:48:30.359Z,20.48
2023-04-10T19:51:33.317Z,20.48
2023-04-10T19:54:37.458Z,20.46
2023-04-10T19:57:40.938Z,20.47
2023-04-10T20:00:43.767Z,20.47
2023-04-10T20:03:46.652Z,20.46
2023-04-10T20:06:49.681Z,20.46
2023-04-10T20:09:53.835Z,20.47
2023-04-10T20:12:56.636Z,20.47
2023-04-10T20:15:59.574Z,20.47
2023-04-10T20:19:02.603Z,20.47
2023-04-10T20:22:05.472Z,20.47
2023-04-10T20:25:10.758Z,20.47
2023-04-10T20:28:13.492Z,20.46
2023-04-10T20:31:16.368Z,20.45
2023-04-10T20:34:19.232Z,20.45
2023-04-10T20:37:22.830Z,20.45
2023-04-10T20:40:27.613Z,20.45
2023-04-10T20:43:30.372Z,20.45
2023-04-10T20:46:33.215Z,20.44
2023-04-10T20:49:37.384Z,20.45
2023-04-10T20:52:41.050Z,20.46
2023-04-10T20:55:45.317Z,20.46
2023-04-10T20:58:48.133Z,20.46
2023-04-10T21:04:53.780Z,20.45
2023-04-10T21:07:56.589Z,20.43
2023-04-10T21:11:00.837Z,20.44
2023-04-10T21:14:03.871Z,20.44
2023-04-10T21:17:06.731Z,20.43
2023-04-10T21:20:10.203Z,20.43
2023-04-10T21:23:12.980Z,20.44
2023-04-10T21:29:19.952Z,20.42
2023-04-10T21:32:22.828Z,20.43
2023-04-10T21:35:25.739Z,20.43
2023-04-10T21:38:28.636Z,20.42
2023-04-10T21:41:33.136Z,20.42
2023-04-10T21:44:36.035Z,20.41
2023-04-10T21:47:38.837Z,20.41
2023-04-10T21:50:41.789Z,20.41
2023-04-10T21:53:44.585Z,20.41
2023-04-10T21:56:48.776Z,20.40
2023-04-10T21:59:51.548Z,20.41
2023-04-10T22:02:54.503Z,20.42
2023-04-10T22:05:57.365Z,20.42
2023-04-10T22:09:00.413Z,20.43
2023-04-10T22:12:04.652Z,20.42
2023-04-10T22:15:08.974Z,20.42
2023-04-10T22:18:11.767Z,20.42
2023-04-10T22:21:14.496Z,20.42
2023-04-10T22:24:17.279Z,20.42
2023-04-10T22:27:21.429Z,20.43
2023-04-10T22:30:24.276Z,20.42
2023-04-10T22:33:27.081Z,20.42
2023-04-10T22:36:32.758Z,20.43
2023-04-10T22:39:35.506Z,20.43
2023-04-10T22:42:39.619Z,20.43
2023-04-10T22:45:42.975Z,20.43
2023-04-10T22:48:46.888Z,20.42
2023-04-10T22:51:49.830Z,20.43
2023-04-10T22:54:52.588Z,20.44
2023-04-10T22:57:56.736Z,20.44
2023-04-10T23:00:59.498Z,20.44
2023-04-10T23:04:02.436Z,20.43
2023-04-10T23:07:05.305Z,20.42
2023-04-10T23:10:09.521Z,20.42
2023-04-10T23:13:13.680Z,20.43
2023-04-10T23:16:16.475Z,20.42
2023-04-10T23:19:19.449Z,20.43
2023-04-10T23:22:22.245Z,20.41
2023-04-10T23:25:25.273Z,20.41
2023-04-10T23:28:29.517Z,20.42
2023-04-10T23:31:32.366Z,20.41
2023-04-10T23:34:35.121Z,20.40
2023-04-10T23:37:37.940Z,20.39
2023-04-10T23:40:40.757Z,20.38
2023-04-10T23:43:45.522Z,20.38
2023-04-10T23:46:49.433Z,20.39
2023-04-10T23:49:52.308Z,20.38
2023-04-10T23:52:55.058Z,20.37
2023-04-10T23:55:57.843Z,20.37
2023-04-10T23:59:01.988Z,20.38
